Time;durP1;ratioP1;P1;durP2;ratioP2;P2;SDS_P1;SDS_P2;PMS_P1;PMS_P2;Temp;Humidity;BMP_temperature;BMP_pressure;BME280_temperature;BME280_humidity;BME280_pressure;Samples;Min_cycle;Max_cycle;Signal;HPM_P1;HPM_P2
2023/05/26 00:00:57;;;;;;;0.20;0.20;;;8.90;99.90;;;;;;5073025;28;20181;-84
2023/05/26 00:03:22;;;;;;;0.20;0.20;;;8.80;99.90;;;;;;5070764;28;20198;-85
2023/05/26 00:05:47;;;;;;;0.20;0.20;;;8.90;99.90;;;;;;5077514;28;20793;-85
2023/05/26 00:08:13;;;;;;;0.20;0.20;;;8.90;99.90;;;;;;5069179;28;20221;-85
2023/05/26 00:10:39;;;;;;;0.20;0.20;;;8.80;99.90;;;;;;5052406;28;20205;-82
2023/05/26 00:13:05;;;;;;;0.20;0.20;;;8.90;99.90;;;;;;5064754;28;20282;-84
2023/05/26 00:15:30;;;;;;;0.30;0.30;;;8.90;99.90;;;;;;5049816;28;20531;-84
2023/05/26 00:18:01;;;;;;;0.20;0.20;;;8.80;99.90;;;;;;5050839;28;20198;-84
2023/05/26 00:20:27;;;;;;;0.20;0.20;;;8.60;99.90;;;;;;5067925;28;20263;-84
2023/05/26 00:22:52;;;;;;;0.20;0.20;;;8.70;99.90;;;;;;5068091;28;20936;-85
2023/05/26 00:25:18;;;;;;;0.20;0.20;;;8.80;99.90;;;;;;5067548;28;20212;-85
2023/05/26 00:27:43;;;;;;;0.30;0.30;;;8.70;99.90;;;;;;5068071;28;20239;-84
2023/05/26 00:30:10;;;;;;;0.20;0.20;;;8.70;99.90;;;;;;5069169;28;20816;-84
2023/05/26 00:32:35;;;;;;;0.30;0.30;;;8.60;99.90;;;;;;5071627;28;20185;-84
2023/05/26 00:35:01;;;;;;;0.30;0.30;;;8.50;99.90;;;;;;5049101;28;20856;-83
2023/05/26 00:37:26;;;;;;;0.20;0.20;;;8.30;99.90;;;;;;5069257;28;20204;-84
2023/05/26 00:39:52;;;;;;;0.20;0.20;;;8.40;99.90;;;;;;5079671;28;20186;-84
2023/05/26 00:42:17;;;;;;;0.20;0.20;;;8.40;99.90;;;;;;5067856;28;20190;-84
2023/05/26 00:44:43;;;;;;;0.20;0.20;;;8.30;99.90;;;;;;5068135;28;20196;-85
2023/05/26 00:47:08;;;;;;;0.20;0.20;;;8.20;99.90;;;;;;5066814;28;20601;-85
2023/05/26 00:49:34;;;;;;;0.20;0.20;;;8.20;99.90;;;;;;5070195;28;20232;-84
2023/05/26 00:52:00;;;;;;;0.20;0.20;;;8.20;99.90;;;;;;5067804;28;20255;-84
2023/05/26 00:54:26;;;;;;;0.30;0.30;;;8.20;99.90;;;;;;5068364;28;20217;-85
2023/05/26 00:56:54;;;;;;;0.30;0.30;;;8.20;99.90;;;;;;5068662;28;20820;-85
2023/05/26 00:59:20;;;;;;;0.20;0.20;;;8.20;99.90;;;;;;5065374;28;20208;-84
2023/05/26 01:01:45;;;;;;;0.20;0.20;;;8.10;99.90;;;;;;5067641;28;20955;-85
2023/05/26 01:04:12;;;;;;;0.30;0.30;;;8.10;99.90;;;;;;5059738;28;20181;-84
2023/05/26 01:06:38;;;;;;;0.30;0.30;;;8.00;99.90;;;;;;5076739;28;20181;-84
2023/05/26 01:09:03;;;;;;;0.30;0.30;;;7.90;99.90;;;;;;5069510;28;20483;-84
2023/05/26 01:12:05;;;;;;;0.30;0.30;;;7.90;99.90;;;;;;5068856;28;20550;-84
2023/05/26 01:14:34;;;;;;;0.30;0.30;;;7.90;99.90;;;;;;5058103;28;20197;-84
2023/05/26 01:17:17;;;;;;;0.30;0.30;;;7.90;99.90;;;;;;5068684;28;20431;-84
2023/05/26 01:20:07;;;;;;;0.27;0.27;;;7.90;99.90;;;;;;5070332;28;20451;-84
2023/05/26 01:22:51;;;;;;;0.30;0.30;;;7.90;99.90;;;;;;5066402;28;20482;-84
2023/05/26 01:25:22;;;;;;;0.23;0.23;;;7.70;99.90;;;;;;5078460;28;20439;-85
2023/05/26 01:28:12;;;;;;;0.30;0.30;;;7.70;99.90;;;;;;5059608;28;20436;-84
2023/05/26 01:30:38;;;;;;;0.30;0.30;;;7.70;99.90;;;;;;5050073;28;20928;-84
2023/05/26 01:33:03;;;;;;;0.30;0.30;;;7.70;99.90;;;;;;5072859;28;20474;-85
2023/05/26 01:35:29;;;;;;;0.30;0.30;;;7.80;99.90;;;;;;5059495;28;20196;-85
2023/05/26 01:37:56;;;;;;;0.30;0.30;;;7.70;99.90;;;;;;5078003;28;20197;-84
2023/05/26 01:40:22;;;;;;;0.30;0.30;;;7.70;99.90;;;;;;5052242;28;20274;-85
2023/05/26 01:42:55;;;;;;;0.30;0.30;;;7.70;99.90;;;;;;5072937;28;20519;-84
2023/05/26 01:45:24;;;;;;;0.30;0.30;;;7.70;99.90;;;;;;5071548;28;20878;-84
2023/05/26 01:47:54;;;;;;;0.30;0.30;;;7.70;99.90;;;;;;5076005;28;20485;-84
2023/05/26 01:50:26;;;;;;;0.30;0.30;;;7.70;99.90;;;;;;5050933;28;20507;-84
2023/05/26 01:52:55;;;;;;;0.20;0.20;;;7.60;99.90;;;;;;5063026;28;20465;-84
2023/05/26 01:55:22;;;;;;;0.30;0.30;;;7.50;99.90;;;;;;5075354;28;20965;-84
2023/05/26 01:57:48;;;;;;;0.20;0.20;;;7.50;99.90;;;;;;5070944;28;20444;-84
2023/05/26 02:00:14;;;;;;;0.30;0.30;;;7.50;99.90;;;;;;5071392;28;21131;-84
2023/05/26 02:02:40;;;;;;;0.30;0.30;;;7.50;99.90;;;;;;5071143;28;20433;-83
2023/05/26 02:05:06;;;;;;;0.20;0.20;;;7.50;99.90;;;;;;5072940;28;20190;-84
2023/05/26 02:07:34;;;;;;;0.30;0.30;;;7.40;99.90;;;;;;5052449;28;20771;-84
2023/05/26 02:10:00;;;;;;;0.30;0.30;;;7.40;99.90;;;;;;5072904;28;20490;-84
2023/05/26 02:12:25;;;;;;;0.30;0.30;;;7.30;99.90;;;;;;5078352;28;20443;-85
2023/05/26 02:14:51;;;;;;;0.23;0.23;;;7.30;99.90;;;;;;5083436;28;20272;-84
2023/05/26 02:17:17;;;;;;;0.30;0.30;;;7.40;99.90;;;;;;5073079;28;20708;-84
2023/05/26 02:19:42;;;;;;;0.30;0.30;;;7.40;99.90;;;;;;5069281;28;20218;-85
2023/05/26 02:22:08;;;;;;;0.30;0.30;;;7.30;99.90;;;;;;5071047;28;20196;-84
2023/05/26 02:24:33;;;;;;;0.30;0.30;;;7.30;99.90;;;;;;5063570;28;20202;-85
2023/05/26 02:26:59;;;;;;;0.30;0.30;;;7.30;99.90;;;;;;5069271;28;20198;-84
2023/05/26 02:29:25;;;;;;;0.30;0.30;;;7.30;99.90;;;;;;5068906;28;20222;-84
2023/05/26 02:31:50;;;;;;;0.30;0.30;;;7.30;99.90;;;;;;5068636;28;20189;-84
2023/05/26 02:34:16;;;;;;;0.30;0.30;;;7.30;99.90;;;;;;5068339;28;20447;-84
2023/05/26 02:36:41;;;;;;;0.30;0.30;;;7.20;99.90;;;;;;5070957;28;20715;-84
2023/05/26 02:39:07;;;;;;;0.30;0.30;;;7.20;99.90;;;;;;5069256;28;20190;-84
2023/05/26 02:41:33;;;;;;;0.30;0.30;;;7.20;99.90;;;;;;5066458;28;20182;-84
2023/05/26 02:43:58;;;;;;;0.30;0.30;;;7.20;99.90;;;;;;5083045;28;20569;-84
2023/05/26 02:46:24;;;;;;;0.30;0.30;;;7.30;99.90;;;;;;5070921;28;20189;-84
2023/05/26 02:48:49;;;;;;;0.30;0.30;;;7.30;99.90;;;;;;5076400;28;20597;-84
2023/05/26 02:51:15;;;;;;;0.30;0.30;;;7.30;99.90;;;;;;5069925;28;20689;-83
2023/05/26 02:53:40;;;;;;;0.30;0.30;;;7.20;99.90;;;;;;5074207;28;20193;-84
2023/05/26 02:56:06;;;;;;;0.30;0.30;;;7.30;99.90;;;;;;5067619;28;20201;-84
2023/05/26 02:58:32;;;;;;;0.30;0.30;;;7.20;99.90;;;;;;5080353;28;20196;-84
2023/05/26 03:00:57;;;;;;;0.30;0.30;;;7.20;99.90;;;;;;5050638;28;20201;-84
2023/05/26 03:03:23;;;;;;;0.30;0.30;;;7.40;99.90;;;;;;5088354;28;20200;-84
2023/05/26 03:05:48;;;;;;;0.30;0.30;;;7.30;99.90;;;;;;5070352;28;20665;-85
2023/05/26 03:08:14;;;;;;;0.30;0.30;;;7.30;99.90;;;;;;5068910;28;20304;-84
2023/05/26 03:10:40;;;;;;;0.30;0.30;;;7.30;99.90;;;;;;5073011;28;20583;-84
2023/05/26 03:13:06;;;;;;;0.30;0.30;;;7.30;99.90;;;;;;5067537;28;20444;-84
2023/05/26 03:15:35;;;;;;;0.30;0.30;;;7.30;99.90;;;;;;5071350;28;20181;-84
2023/05/26 03:18:00;;;;;;;0.30;0.30;;;7.30;99.90;;;;;;5055182;28;20190;-84
2023/05/26 03:20:26;;;;;;;0.30;0.30;;;7.30;99.90;;;;;;5069475;28;20498;-84
2023/05/26 03:22:52;;;;;;;0.20;0.20;;;7.40;99.90;;;;;;5075122;28;21106;-83
2023/05/26 03:25:18;;;;;;;0.30;0.30;;;7.30;99.90;;;;;;5071896;28;20552;-84
2023/05/26 03:27:43;;;;;;;0.30;0.30;;;7.30;99.90;;;;;;5069871;28;20551;-84
2023/05/26 03:30:09;;;;;;;0.30;0.30;;;7.30;99.90;;;;;;5068787;28;20455;-83
2023/05/26 03:32:35;;;;;;;0.30;0.30;;;7.30;99.90;;;;;;5075845;28;20190;-84
2023/05/26 03:35:01;;;;;;;0.30;0.30;;;7.30;99.90;;;;;;5070987;28;20202;-84
2023/05/26 03:37:27;;;;;;;0.30;0.30;;;7.40;99.90;;;;;;5069544;28;20188;-84
2023/05/26 03:39:52;;;;;;;0.20;0.20;;;7.40;99.90;;;;;;5067517;28;20944;-85
2023/05/26 03:42:18;;;;;;;0.30;0.30;;;7.40;99.90;;;;;;5061423;28;20264;-84
2023/05/26 03:44:43;;;;;;;0.30;0.30;;;7.40;99.90;;;;;;5068009;28;20647;-84
2023/05/26 03:47:09;;;;;;;0.30;0.30;;;7.40;99.90;;;;;;5068454;28;20181;-84
2023/05/26 03:49:35;;;;;;;0.30;0.30;;;7.40;99.90;;;;;;5066898;28;20459;-84
2023/05/26 03:52:01;;;;;;;0.30;0.30;;;7.40;99.90;;;;;;5066308;28;20268;-84
2023/05/26 03:54:26;;;;;;;0.30;0.30;;;7.50;99.90;;;;;;5069623;28;20205;-84
2023/05/26 03:56:54;;;;;;;0.30;0.30;;;7.40;99.90;;;;;;5068616;28;20868;-84
2023/05/26 03:59:19;;;;;;;0.20;0.20;;;7.40;99.90;;;;;;5050926;28;20638;-84
2023/05/26 04:01:45;;;;;;;0.30;0.30;;;7.30;99.90;;;;;;5067472;28;20459;-83
2023/05/26 04:04:11;;;;;;;0.30;0.30;;;7.40;99.90;;;;;;5069615;28;20545;-84
2023/05/26 04:06:37;;;;;;;0.30;0.30;;;7.40;99.90;;;;;;5066691;28;20186;-84
2023/05/26 04:09:03;;;;;;;0.30;0.30;;;7.40;99.90;;;;;;5076606;28;20224;-84
2023/05/26 04:11:29;;;;;;;0.20;0.20;;;7.30;99.90;;;;;;5083627;28;20943;-84
2023/05/26 04:13:55;;;;;;;0.30;0.30;;;7.30;99.90;;;;;;5057008;28;20687;-83
2023/05/26 04:16:20;;;;;;;0.30;0.30;;;7.30;99.90;;;;;;5066526;28;20530;-84
2023/05/26 04:18:46;;;;;;;0.30;0.30;;;7.40;99.90;;;;;;5065736;28;20205;-83
2023/05/26 04:21:12;;;;;;;0.30;0.30;;;7.40;99.90;;;;;;5072186;28;20177;-84
2023/05/26 04:23:38;;;;;;;0.30;0.30;;;7.50;99.90;;;;;;5067794;28;20444;-83
2023/05/26 04:26:04;;;;;;;0.30;0.30;;;7.50;99.90;;;;;;5066301;28;20630;-85
2023/05/26 04:28:30;;;;;;;0.30;0.30;;;7.50;99.90;;;;;;5069105;28;20236;-84
2023/05/26 04:30:55;;;;;;;0.30;0.30;;;7.60;99.90;;;;;;5066705;28;20439;-84
2023/05/26 04:33:22;;;;;;;0.30;0.30;;;7.60;99.90;;;;;;5067038;28;20225;-84
2023/05/26 04:35:47;;;;;;;0.30;0.30;;;7.50;99.90;;;;;;5068948;28;20174;-83
2023/05/26 04:38:15;;;;;;;0.30;0.30;;;7.60;99.90;;;;;;5090315;28;20430;-84
2023/05/26 04:40:41;;;;;;;0.30;0.30;;;7.70;99.90;;;;;;5065193;28;20217;-84
2023/05/26 04:43:06;;;;;;;0.30;0.30;;;7.80;99.90;;;;;;5059832;28;20999;-85
2023/05/26 04:45:40;;;;;;;0.20;0.20;;;7.80;99.90;;;;;;5066576;28;20681;-84
2023/05/26 04:48:06;;;;;;;0.30;0.30;;;7.90;99.90;;;;;;5067395;28;20266;-83
2023/05/26 04:50:32;;;;;;;0.30;0.30;;;7.90;99.90;;;;;;5066669;28;20509;-82
2023/05/26 04:52:58;;;;;;;0.30;0.30;;;7.90;99.90;;;;;;5074497;28;20602;-84
2023/05/26 04:55:25;;;;;;;0.30;0.30;;;8.10;99.90;;;;;;5065570;28;20444;-84
2023/05/26 04:57:50;;;;;;;0.20;0.20;;;8.10;99.90;;;;;;5048219;28;20485;-84
2023/05/26 05:00:16;;;;;;;0.27;0.27;;;8.20;99.90;;;;;;5064877;28;20855;-84
2023/05/26 05:02:42;;;;;;;0.20;0.20;;;8.30;99.90;;;;;;5062661;28;20187;-84
2023/05/26 05:05:08;;;;;;;0.30;0.30;;;8.40;99.90;;;;;;5045290;28;20766;-84
2023/05/26 05:07:33;;;;;;;0.30;0.30;;;8.50;99.90;;;;;;5058850;28;20227;-82
2023/05/26 05:09:59;;;;;;;0.23;0.23;;;8.60;99.90;;;;;;5078054;28;20491;-83
2023/05/26 05:12:25;;;;;;;0.20;0.20;;;8.60;99.90;;;;;;5062771;28;20189;-85
2023/05/26 05:14:50;;;;;;;0.20;0.20;;;8.80;99.90;;;;;;5067606;28;20209;-84
2023/05/26 05:17:17;;;;;;;0.20;0.20;;;9.00;99.90;;;;;;5049720;28;20277;-84
2023/05/26 05:19:43;;;;;;;0.20;0.20;;;9.10;99.90;;;;;;5067101;28;20181;-85
2023/05/26 05:22:08;;;;;;;0.20;0.20;;;9.20;99.90;;;;;;5070103;28;20473;-84
2023/05/26 05:24:34;;;;;;;0.20;0.20;;;9.30;99.90;;;;;;5082168;28;20254;-84
2023/05/26 05:27:00;;;;;;;0.20;0.20;;;9.40;99.90;;;;;;5069968;28;20305;-84
2023/05/26 05:29:25;;;;;;;0.20;0.20;;;9.50;99.90;;;;;;5069516;28;20230;-86
2023/05/26 05:31:51;;;;;;;0.20;0.20;;;9.60;99.90;;;;;;5059262;28;20749;-85
2023/05/26 05:34:16;;;;;;;0.20;0.20;;;9.80;99.90;;;;;;5063814;28;20255;-84
2023/05/26 05:36:42;;;;;;;0.30;0.30;;;9.90;99.90;;;;;;5063924;28;20182;-87
2023/05/26 05:39:07;;;;;;;0.20;0.20;;;10.10;99.90;;;;;;5066254;28;20190;-88
2023/05/26 05:41:33;;;;;;;0.20;0.20;;;10.10;99.90;;;;;;5066741;28;20182;-86
2023/05/26 05:43:58;;;;;;;0.20;0.20;;;10.20;99.90;;;;;;5061490;28;20192;-87
2023/05/26 05:46:25;;;;;;;0.23;0.23;;;10.30;99.90;;;;;;5074827;28;20212;-87
2023/05/26 05:48:50;;;;;;;0.20;0.20;;;10.40;99.90;;;;;;5068150;28;20245;-87
2023/05/26 05:51:15;;;;;;;0.20;0.20;;;10.50;99.90;;;;;;5066253;28;20514;-88
2023/05/26 05:53:41;;;;;;;0.20;0.20;;;10.60;99.90;;;;;;5067369;28;20217;-86
2023/05/26 05:56:07;;;;;;;0.20;0.20;;;10.70;99.90;;;;;;5064522;28;20544;-88
2023/05/26 05:58:32;;;;;;;0.20;0.20;;;10.80;99.90;;;;;;5070267;28;20217;-88
2023/05/26 06:00:58;;;;;;;0.20;0.20;;;10.90;99.90;;;;;;5072081;28;20189;-88
2023/05/26 06:03:24;;;;;;;0.20;0.20;;;10.90;99.90;;;;;;5069483;28;20315;-87
2023/05/26 06:05:50;;;;;;;0.20;0.20;;;11.00;99.90;;;;;;5090948;28;20215;-89
2023/05/26 06:08:15;;;;;;;0.20;0.20;;;11.00;99.90;;;;;;5072896;28;20510;-88
2023/05/26 06:10:41;;;;;;;0.20;0.20;;;11.10;99.90;;;;;;5078663;28;20196;-87
2023/05/26 06:13:06;;;;;;;0.20;0.20;;;11.20;99.90;;;;;;5069571;28;20200;-87
2023/05/26 06:15:32;;;;;;;0.20;0.20;;;11.20;99.90;;;;;;5070339;28;20250;-88
2023/05/26 06:17:57;;;;;;;0.20;0.20;;;11.30;99.90;;;;;;5070190;28;20193;-88
2023/05/26 06:20:22;;;;;;;0.20;0.20;;;11.40;99.90;;;;;;5071159;28;20189;-88
2023/05/26 06:22:48;;;;;;;0.20;0.20;;;11.30;99.90;;;;;;5065256;28;20236;-87
2023/05/26 06:25:13;;;;;;;0.20;0.20;;;11.50;99.90;;;;;;5070972;28;20205;-86
2023/05/26 06:27:39;;;;;;;0.20;0.20;;;11.70;99.90;;;;;;5070725;28;20200;-85
2023/05/26 06:30:06;;;;;;;0.20;0.20;;;11.70;99.90;;;;;;5067206;28;20224;-87
2023/05/26 06:32:31;;;;;;;0.20;0.20;;;11.80;99.90;;;;;;5071040;28;20190;-87
2023/05/26 06:34:57;;;;;;;0.20;0.20;;;12.00;99.90;;;;;;5087783;28;20500;-87
2023/05/26 06:37:22;;;;;;;0.20;0.20;;;12.20;99.90;;;;;;5083238;28;20269;-86
2023/05/26 06:39:48;;;;;;;0.20;0.20;;;12.10;99.90;;;;;;5072053;28;20190;-89
2023/05/26 06:42:13;;;;;;;0.17;0.17;;;12.10;99.90;;;;;;5087243;28;20271;-86
2023/05/26 06:44:39;;;;;;;0.10;0.10;;;12.20;99.90;;;;;;5053737;28;20186;-87
2023/05/26 06:47:04;;;;;;;0.17;0.17;;;12.30;99.90;;;;;;5072846;28;20221;-86
2023/05/26 06:49:30;;;;;;;0.20;0.20;;;12.60;99.90;;;;;;5064875;28;20223;-86
2023/05/26 06:51:57;;;;;;;0.10;0.10;;;12.50;99.90;;;;;;5068975;28;20310;-84
2023/05/26 06:54:22;;;;;;;0.20;0.20;;;12.50;99.90;;;;;;5063565;28;20182;-85
2023/05/26 06:56:48;;;;;;;0.10;0.10;;;12.60;99.90;;;;;;5069684;28;20827;-83
2023/05/26 06:59:13;;;;;;;0.10;0.10;;;12.70;99.90;;;;;;5075630;28;20227;-84
2023/05/26 07:01:39;;;;;;;0.10;0.10;;;12.80;99.90;;;;;;5068544;28;20215;-81
2023/05/26 07:04:04;;;;;;;0.20;0.20;;;13.10;99.90;;;;;;5067515;28;20200;-83
2023/05/26 07:06:30;;;;;;;0.10;0.10;;;13.10;99.90;;;;;;5076681;28;20594;-83
2023/05/26 07:08:56;;;;;;;0.20;0.20;;;13.20;99.90;;;;;;5068069;28;20229;-83
2023/05/26 07:11:21;;;;;;;0.10;0.10;;;12.90;99.90;;;;;;5059636;28;20200;-83
2023/05/26 07:13:50;;;;;;;0.10;0.10;;;13.30;99.90;;;;;;5057508;28;20194;-84
2023/05/26 07:16:16;;;;;;;0.10;0.10;;;13.30;99.90;;;;;;5071342;28;20193;-83
2023/05/26 07:18:41;;;;;;;0.10;0.10;;;13.10;99.90;;;;;;5064198;28;20440;-85
2023/05/26 07:21:07;;;;;;;0.10;0.10;;;13.30;99.90;;;;;;5067825;28;20193;-85
2023/05/26 07:23:32;;;;;;;0.10;0.10;;;13.60;99.90;;;;;;5074767;28;20565;-83
2023/05/26 07:25:58;;;;;;;0.10;0.10;;;13.80;99.90;;;;;;5065942;28;20647;-83
2023/05/26 07:28:23;;;;;;;0.10;0.10;;;13.90;99.90;;;;;;5048786;28;20242;-84
2023/05/26 07:30:49;;;;;;;0.10;0.10;;;13.50;99.90;;;;;;5055296;28;20870;-83
2023/05/26 07:33:15;;;;;;;0.10;0.10;;;13.90;99.90;;;;;;5064368;28;20677;-84
2023/05/26 07:35:41;;;;;;;0.10;0.10;;;14.00;99.90;;;;;;5065438;28;20441;-84
2023/05/26 07:38:07;;;;;;;0.10;0.10;;;14.00;99.90;;;;;;5059983;28;20179;-84
2023/05/26 07:40:34;;;;;;;0.10;0.10;;;14.00;99.90;;;;;;5048225;28;20320;-84
2023/05/26 07:43:01;;;;;;;0.10;0.10;;;14.30;99.90;;;;;;5067965;28;20452;-84
2023/05/26 07:45:26;;;;;;;0.10;0.10;;;14.50;99.90;;;;;;5069307;28;20444;-86
2023/05/26 07:47:52;;;;;;;0.10;0.10;;;14.80;99.90;;;;;;5077903;28;20442;-85
2023/05/26 07:50:17;;;;;;;0.10;0.10;;;14.80;99.90;;;;;;5070055;28;20196;-84
2023/05/26 07:52:43;;;;;;;0.10;0.10;;;14.80;99.90;;;;;;5086298;28;20263;-82
2023/05/26 07:55:08;;;;;;;0.10;0.10;;;15.00;99.90;;;;;;5065637;28;20269;-86
2023/05/26 07:57:34;;;;;;;0.10;0.10;;;14.80;99.90;;;;;;5068139;28;20178;-84
2023/05/26 08:10:25;;;;;;;0.00;0.00;;;15.00;99.90;;;;;;5121693;27;20681;-83
2023/05/26 08:12:52;;;;;;;0.00;0.00;;;15.30;99.90;;;;;;5103225;28;20528;-84
2023/05/26 08:15:17;;;;;;;0.10;0.10;;;14.90;99.90;;;;;;5092277;28;20969;-84
2023/05/26 08:17:43;;;;;;;0.10;0.10;;;15.00;99.90;;;;;;5098863;28;20446;-83
2023/05/26 08:20:09;;;;;;;0.10;0.10;;;15.10;99.90;;;;;;5114449;28;20188;-84
2023/05/26 08:22:36;;;;;;;0.00;0.00;;;15.10;99.90;;;;;;5087502;28;20181;-86
2023/05/26 08:25:02;;;;;;;0.10;0.10;;;15.70;99.90;;;;;;5103651;28;20442;-84
2023/05/26 08:27:27;;;;;;;0.10;0.10;;;15.60;99.90;;;;;;5118194;28;20434;-83
2023/05/26 08:29:53;;;;;;;0.10;0.10;;;15.30;99.90;;;;;;5113873;28;20790;-83
2023/05/26 08:32:18;;;;;;;0.10;0.10;;;15.20;99.90;;;;;;5084860;28;20188;-83
2023/05/26 08:34:44;;;;;;;0.10;0.10;;;15.50;99.90;;;;;;5104880;28;20185;-83
2023/05/26 08:37:11;;;;;;;0.10;0.10;;;16.00;99.90;;;;;;5106199;28;20188;-85
2023/05/26 08:39:40;;;;;;;0.10;0.10;;;16.20;99.90;;;;;;5107820;28;20480;-83
2023/05/26 08:42:06;;;;;;;0.10;0.10;;;16.00;99.90;;;;;;5109478;28;20438;-85
2023/05/26 08:44:36;;;;;;;0.10;0.10;;;15.50;99.90;;;;;;5101972;28;20452;-84
2023/05/26 08:47:05;;;;;;;0.10;0.10;;;15.30;99.90;;;;;;5102260;28;20472;-84
2023/05/26 08:49:39;;;;;;;0.10;0.10;;;15.00;99.90;;;;;;5107071;28;20485;-85
2023/05/26 08:52:10;;;;;;;0.10;0.10;;;15.00;99.90;;;;;;5090702;28;20443;-85
2023/05/26 08:54:36;;;;;;;0.10;0.10;;;15.40;99.90;;;;;;5085098;28;20450;-84
2023/05/26 08:57:03;;;;;;;0.10;0.10;;;15.70;99.90;;;;;;5106667;28;20790;-86
2023/05/26 08:59:30;;;;;;;0.10;0.10;;;15.40;99.90;;;;;;5108597;28;21091;-87
2023/05/26 09:01:56;;;;;;;0.10;0.10;;;15.30;99.90;;;;;;5093993;28;20443;-88
2023/05/26 09:04:22;;;;;;;0.00;0.00;;;15.30;99.90;;;;;;5107361;28;20426;-86
2023/05/26 09:06:48;;;;;;;0.00;0.00;;;15.00;99.90;;;;;;5108939;28;20552;-82
2023/05/26 09:09:14;;;;;;;0.00;0.00;;;14.90;99.90;;;;;;5105666;28;20489;-92
2023/05/26 09:11:42;;;;;;;0.00;0.00;;;14.50;99.90;;;;;;5101353;28;20603;-88
2023/05/26 09:14:08;;;;;;;0.00;0.00;;;14.60;99.90;;;;;;5104651;28;20446;-91
2023/05/26 09:16:33;;;;;;;0.00;0.00;;;14.60;99.90;;;;;;5084900;28;20541;-88
2023/05/26 09:19:01;;;;;;;0.00;0.00;;;14.50;99.90;;;;;;5090238;28;20261;-89
2023/05/26 09:21:27;;;;;;;0.00;0.00;;;14.70;99.90;;;;;;5093102;28;20189;-87
2023/05/26 09:23:55;;;;;;;0.00;0.00;;;14.70;99.90;;;;;;5098094;28;20458;-91
2023/05/26 09:26:30;;;;;;;0.10;0.10;;;14.80;99.90;;;;;;5093719;28;20443;-90
2023/05/26 09:28:55;;;;;;;0.10;0.10;;;14.50;99.90;;;;;;5092387;28;20510;-90
2023/05/26 09:31:21;;;;;;;0.10;0.10;;;14.70;99.90;;;;;;5071560;28;20516;-88
2023/05/26 09:33:47;;;;;;;0.10;0.10;;;14.80;99.90;;;;;;5095195;28;20195;-89
2023/05/26 09:36:14;;;;;;;0.00;0.00;;;14.80;99.90;;;;;;5101928;28;20264;-89
2023/05/26 09:38:42;;;;;;;0.00;0.00;;;14.90;99.90;;;;;;5094741;28;20186;-88
2023/05/26 09:41:07;;;;;;;0.00;0.00;;;15.00;99.90;;;;;;5075826;28;20523;-92
2023/05/26 09:43:33;;;;;;;0.00;0.00;;;15.20;99.90;;;;;;5094249;28;20476;-92
2023/05/26 09:45:59;;;;;;;0.00;0.00;;;15.20;99.90;;;;;;5099233;28;20188;-89
2023/05/26 09:48:25;;;;;;;0.00;0.00;;;15.20;99.90;;;;;;5075025;28;20458;-89
2023/05/26 09:50:51;;;;;;;0.00;0.00;;;15.10;99.90;;;;;;5092590;28;20705;-89
2023/05/26 09:53:17;;;;;;;0.00;0.00;;;15.30;99.90;;;;;;5086522;28;20185;-88
2023/05/26 09:55:44;;;;;;;0.00;0.00;;;15.10;99.90;;;;;;5095509;28;20959;-91
2023/05/26 09:58:11;;;;;;;0.00;0.00;;;15.20;99.90;;;;;;5091695;28;20230;-89
2023/05/26 10:00:40;;;;;;;0.00;0.00;;;15.10;99.90;;;;;;5075395;28;20439;-87
2023/05/26 10:03:10;;;;;;;0.00;0.00;;;15.00;99.90;;;;;;5093695;28;20470;-89
2023/05/26 10:05:50;;;;;;;0.00;0.00;;;15.00;99.90;;;;;;5093345;28;20790;-89
2023/05/26 10:08:19;;;;;;;0.00;0.00;;;15.00;99.90;;;;;;5087290;28;20433;-88
2023/05/26 10:10:46;;;;;;;0.00;0.00;;;14.80;99.90;;;;;;5072038;28;20451;-87
2023/05/26 10:13:12;;;;;;;0.00;0.00;;;15.00;99.90;;;;;;5072323;28;20932;-88
2023/05/26 10:15:38;;;;;;;0.00;0.00;;;14.90;99.90;;;;;;5095301;28;20448;-88
2023/05/26 10:18:03;;;;;;;0.00;0.00;;;15.10;99.90;;;;;;5095461;28;20439;-90
2023/05/26 10:20:30;;;;;;;0.00;0.00;;;15.30;99.90;;;;;;5081926;28;20224;-88
2023/05/26 10:23:07;;;;;;;0.00;0.00;;;15.30;99.90;;;;;;5088558;28;20265;-91
2023/05/26 10:25:38;;;;;;;0.00;0.00;;;15.20;99.90;;;;;;5082221;28;20570;-91
2023/05/26 10:28:23;;;;;;;0.00;0.00;;;14.80;99.90;;;;;;5079632;28;20980;-92
2023/05/26 10:31:00;;;;;;;0.00;0.00;;;14.90;99.90;;;;;;5087504;28;20454;-91
2023/05/26 10:33:40;;;;;;;0.00;0.00;;;15.00;99.90;;;;;;5087636;28;20446;-91
2023/05/26 10:36:08;;;;;;;0.00;0.00;;;15.00;99.90;;;;;;5098604;28;20435;-91
2023/05/26 10:38:42;;;;;;;0.00;0.00;;;15.50;99.90;;;;;;5074048;28;20471;-91
2023/05/26 10:41:12;;;;;;;0.00;0.00;;;15.90;99.90;;;;;;5088654;28;20523;-91
2023/05/26 10:43:38;;;;;;;0.00;0.00;;;16.20;99.90;;;;;;5102994;28;20441;-94
2023/05/26 10:46:05;;;;;;;0.00;0.00;;;15.90;99.90;;;;;;5094988;28;20437;-90
2023/05/26 10:48:40;;;;;;;0.00;0.00;;;15.80;99.90;;;;;;5096768;28;20212;-90
2023/05/26 10:51:24;;;;;;;0.00;0.00;;;15.40;99.90;;;;;;5098310;28;20854;-92
2023/05/26 10:53:51;;;;;;;0.00;0.00;;;15.40;99.90;;;;;;5079289;28;20851;-88
2023/05/26 10:56:18;;;;;;;0.00;0.00;;;15.20;99.90;;;;;;5068351;28;20482;-89
2023/05/26 10:58:48;;;;;;;0.00;0.00;;;15.60;99.90;;;;;;5088557;28;20500;-91
2023/05/26 11:01:29;;;;;;;0.00;0.00;;;15.70;99.90;;;;;;5090916;28;20455;-91
2023/05/26 11:03:57;;;;;;;0.00;0.00;;;15.60;99.90;;;;;;5088265;28;20442;-89
2023/05/26 11:06:52;;;;;;;0.03;0.03;;;15.60;99.90;;;;;;5088816;28;20439;-87
2023/05/26 11:09:26;;;;;;;0.10;0.10;;;16.60;99.90;;;;;;5079487;28;20590;-89
2023/05/26 11:11:59;;;;;;;0.10;0.10;;;17.00;99.90;;;;;;5075349;28;20453;-93
2023/05/26 11:14:29;;;;;;;0.00;0.00;;;17.00;99.90;;;;;;5074816;28;20455;-91
2023/05/26 11:16:57;;;;;;;0.00;0.00;;;16.10;99.90;;;;;;5085548;28;20467;-85
2023/05/26 11:19:36;;;;;;;0.00;0.00;;;15.80;99.90;;;;;;5088570;28;20442;-87
2023/05/26 11:22:08;;;;;;;0.00;0.00;;;16.40;99.90;;;;;;5086655;28;20438;-91
2023/05/26 11:24:34;;;;;;;0.00;0.00;;;18.00;99.90;;;;;;5085372;28;20809;-88
2023/05/26 11:27:03;;;;;;;0.00;0.00;;;18.80;99.90;;;;;;5087755;28;20958;-89
2023/05/26 11:29:30;;;;;;;0.00;0.00;;;19.00;99.90;;;;;;5086378;28;20490;-92
2023/05/26 11:31:56;;;;;;;0.00;0.00;;;19.00;99.90;;;;;;5091291;28;20446;-90
2023/05/26 11:34:22;;;;;;;0.00;0.00;;;17.90;99.90;;;;;;5090589;28;20539;-92
2023/05/26 11:36:49;;;;;;;0.00;0.00;;;18.00;99.90;;;;;;5090082;28;20581;-91
2023/05/26 11:39:16;;;;;;;0.00;0.00;;;18.70;99.90;;;;;;5088642;28;20497;-91
2023/05/26 11:41:42;;;;;;;0.00;0.00;;;18.80;99.90;;;;;;5090020;28;20451;-92
2023/05/26 11:44:08;;;;;;;0.00;0.00;;;18.20;99.90;;;;;;5089019;28;20455;-92
2023/05/26 11:46:36;;;;;;;0.00;0.00;;;17.70;99.90;;;;;;5087490;28;20450;-91
2023/05/26 11:49:02;;;;;;;0.00;0.00;;;16.90;99.90;;;;;;5094606;28;20973;-92
2023/05/26 11:51:28;;;;;;;0.00;0.00;;;16.70;99.90;;;;;;5089203;28;20463;-91
2023/05/26 11:53:55;;;;;;;0.00;0.00;;;17.50;99.90;;;;;;5067721;28;20196;-89
2023/05/26 11:56:21;;;;;;;0.00;0.00;;;18.30;99.90;;;;;;5087054;28;20189;-90
2023/05/26 11:58:55;;;;;;;0.00;0.00;;;19.20;99.90;;;;;;5088432;28;20457;-90
2023/05/26 12:01:28;;;;;;;0.00;0.00;;;19.40;99.90;;;;;;5085276;28;21093;-87
2023/05/26 12:03:56;;;;;;;0.00;0.00;;;18.30;99.90;;;;;;5092544;28;20450;-88
2023/05/26 12:06:23;;;;;;;0.00;0.00;;;17.80;99.90;;;;;;5088870;28;20900;-94
2023/05/26 12:09:03;;;;;;;0.00;0.00;;;17.40;99.90;;;;;;5079378;28;20493;-91
2023/05/26 12:11:29;;;;;;;0.00;0.00;;;18.10;99.90;;;;;;5087382;28;20478;-90
2023/05/26 12:14:00;;;;;;;0.00;0.00;;;19.10;99.90;;;;;;5090066;28;20966;-92
2023/05/26 12:16:34;;;;;;;0.00;0.00;;;19.40;99.90;;;;;;5085320;28;20627;-90
2023/05/26 12:19:12;;;;;;;0.00;0.00;;;20.30;99.90;;;;;;5090108;28;21004;-91
2023/05/26 12:21:46;;;;;;;0.00;0.00;;;21.30;99.90;;;;;;5085642;28;20462;-91
2023/05/26 12:24:13;;;;;;;0.00;0.00;;;21.50;99.50;;;;;;5086838;28;20443;-91
2023/05/26 12:26:39;;;;;;;0.00;0.00;;;20.80;99.50;;;;;;5073823;28;20442;-93
2023/05/26 12:29:19;;;;;;;0.00;0.00;;;20.50;98.80;;;;;;5090195;28;20557;-91
2023/05/26 12:31:52;;;;;;;0.00;0.00;;;20.70;99.90;;;;;;5087652;28;20496;-91
2023/05/26 12:34:22;;;;;;;0.00;0.00;;;20.30;97.80;;;;;;5071168;28;20852;-90
2023/05/26 12:36:49;;;;;;;0.00;0.00;;;20.30;99.90;;;;;;5087730;28;20454;-91
2023/05/26 12:39:15;;;;;;;0.00;0.00;;;20.30;99.90;;;;;;5072236;28;20487;-90
2023/05/26 12:41:45;;;;;;;0.00;0.00;;;19.90;99.60;;;;;;5088029;28;20451;-91
2023/05/26 12:44:11;;;;;;;0.00;0.00;;;21.00;99.60;;;;;;5085666;28;20466;-88
2023/05/26 12:46:39;;;;;;;0.00;0.00;;;22.00;99.90;;;;;;5088307;28;20955;-89
2023/05/26 12:49:05;;;;;;;0.00;0.00;;;21.70;99.90;;;;;;5078916;28;20217;-87
2023/05/26 12:51:31;;;;;;;0.00;0.00;;;21.00;99.30;;;;;;5087379;28;20440;-89
2023/05/26 12:53:56;;;;;;;0.00;0.00;;;22.20;99.90;;;;;;5069559;28;20191;-87
2023/05/26 12:56:22;;;;;;;0.00;0.00;;;22.00;99.90;;;;;;5090586;28;20796;-91
2023/05/26 12:58:48;;;;;;;0.00;0.00;;;21.60;97.80;;;;;;5090330;28;20230;-90
2023/05/26 13:01:14;;;;;;;0.00;0.00;;;21.50;99.10;;;;;;5088786;28;20473;-90